Time;durP1;ratioP1;P1;durP2;ratioP2;P2;SDS_P1;SDS_P2;PMS_P1;PMS_P2;Temp;Humidity;BMP_temperature;BMP_pressure;BME280_temperature;BME280_humidity;BME280_pressure;Samples;Min_cycle;Max_cycle;Signal;HPM_P1;HPM_P2
2023/04/27 00:01:24;;;;;;;4.55;1.50;;;;;;;;;;5033001;28;20597;-77
2023/04/27 00:03:50;;;;;;;3.50;1.50;;;;;;;;;;5032273;28;20412;-78
2023/04/27 00:06:16;;;;;;;3.72;1.48;;;;;;;;;;5036171;28;20457;-77
2023/04/27 00:08:42;;;;;;;4.25;1.50;;;;;;;;;;5037664;28;21066;-77
2023/04/27 00:11:08;;;;;;;2.53;1.77;;;;;;;;;;5042089;28;20513;-77
2023/04/27 00:13:34;;;;;;;3.33;1.40;;;;;;;;;;5026373;28;21209;-78
2023/04/27 00:16:02;;;;;;;5.87;1.50;;;;;;;;;;5037087;28;20459;-78
2023/04/27 00:18:28;;;;;;;3.00;1.20;;;;;;;;;;5037282;28;20421;-78
2023/04/27 00:20:54;;;;;;;3.15;1.60;;;;;;;;;;5035087;28;20416;-78
2023/04/27 00:23:20;;;;;;;3.90;1.60;;;;;;;;;;5043042;28;20424;-77
2023/04/27 00:25:46;;;;;;;2.60;1.20;;;;;;;;;;5041050;28;20788;-76
2023/04/27 00:28:12;;;;;;;4.20;1.70;;;;;;;;;;5026221;28;20419;-77
2023/04/27 00:30:38;;;;;;;2.38;1.33;;;;;;;;;;5031225;28;20414;-77
2023/04/27 00:33:04;;;;;;;4.57;1.42;;;;;;;;;;5043247;28;20409;-76
2023/04/27 00:35:32;;;;;;;3.83;1.40;;;;;;;;;;5037307;28;20425;-76
2023/04/27 00:37:58;;;;;;;2.90;1.38;;;;;;;;;;5037144;28;20426;-77
2023/04/27 00:40:24;;;;;;;3.00;1.40;;;;;;;;;;5020701;28;20428;-77
2023/04/27 00:42:50;;;;;;;3.00;1.33;;;;;;;;;;5030117;28;20418;-77
2023/04/27 00:45:16;;;;;;;7.70;1.85;;;;;;;;;;5034801;28;20506;-77
2023/04/27 00:47:42;;;;;;;3.33;1.50;;;;;;;;;;5035581;28;20484;-77
2023/04/27 00:50:10;;;;;;;4.10;1.63;;;;;;;;;;5034894;28;20421;-77
2023/04/27 00:52:36;;;;;;;5.00;1.55;;;;;;;;;;5020724;28;20421;-77
2023/04/27 00:55:03;;;;;;;3.88;1.50;;;;;;;;;;5022187;28;20409;-77
2023/04/27 00:57:29;;;;;;;2.63;1.65;;;;;;;;;;5021459;28;20407;-77
2023/04/27 00:59:55;;;;;;;3.08;1.92;;;;;;;;;;5032291;28;20776;-77
2023/04/27 01:02:22;;;;;;;4.78;1.63;;;;;;;;;;5020605;28;20417;-76
2023/04/27 01:04:49;;;;;;;4.30;1.90;;;;;;;;;;5030800;28;20500;-77
2023/04/27 01:07:15;;;;;;;7.40;1.67;;;;;;;;;;5034547;28;20496;-77
2023/04/27 01:09:41;;;;;;;3.30;1.60;;;;;;;;;;5034513;28;20398;-77
2023/04/27 01:12:07;;;;;;;3.58;1.67;;;;;;;;;;5037488;28;20421;-77
2023/04/27 01:14:33;;;;;;;3.70;1.50;;;;;;;;;;5027371;28;20413;-77
2023/04/27 01:16:59;;;;;;;2.60;1.50;;;;;;;;;;5037789;28;20531;-77
2023/04/27 01:19:25;;;;;;;2.75;1.38;;;;;;;;;;5043654;28;20409;-77
2023/04/27 01:21:51;;;;;;;3.00;1.77;;;;;;;;;;5020433;28;20436;-77
2023/04/27 01:24:17;;;;;;;2.92;1.70;;;;;;;;;;5028630;28;20497;-77
2023/04/27 01:26:43;;;;;;;2.55;1.48;;;;;;;;;;5041085;28;20444;-77
2023/04/27 01:29:09;;;;;;;3.72;1.95;;;;;;;;;;5015826;28;20443;-77
2023/04/27 01:31:35;;;;;;;3.95;1.92;;;;;;;;;;5031971;28;20433;-77
2023/04/27 01:34:01;;;;;;;3.47;1.80;;;;;;;;;;5027807;28;20401;-78
2023/04/27 01:36:28;;;;;;;2.80;1.50;;;;;;;;;;5032213;28;20417;-76
2023/04/27 01:38:54;;;;;;;2.53;1.43;;;;;;;;;;5030878;28;20419;-77
2023/04/27 01:41:19;;;;;;;3.27;1.60;;;2.30;99.90;;;;;;5019558;28;20491;-78
2023/04/27 01:43:46;;;;;;;2.75;1.30;;;;;;;;;;5019999;28;20428;-77
2023/04/27 01:46:12;;;;;;;3.00;1.60;;;;;;;;;;5018932;28;20468;-77
2023/04/27 01:48:39;;;;;;;3.63;1.67;;;;;;;;;;5014523;28;20420;-77
2023/04/27 01:51:05;;;;;;;3.17;1.43;;;;;;;;;;5023335;28;20447;-76
2023/04/27 01:53:31;;;;;;;3.30;1.48;;;;;;;;;;5030485;28;20484;-77
2023/04/27 01:56:00;;;;;;;4.13;1.88;;;;;;;;;;5022192;28;20420;-77
2023/04/27 01:58:26;;;;;;;4.10;1.83;;;;;;;;;;5027477;28;21047;-77
2023/04/27 02:00:52;;;;;;;5.03;1.48;;;;;;;;;;5028688;28;20425;-77
2023/04/27 02:03:18;;;;;;;4.13;1.88;;;;;;;;;;5032062;28;20448;-77
2023/04/27 02:05:45;;;;;;;4.45;1.75;;;;;;;;;;5026411;28;20441;-77
2023/04/27 02:08:11;;;;;;;3.90;1.77;;;;;;;;;;5027407;28;20402;-77
2023/04/27 02:10:37;;;;;;;6.25;1.60;;;;;;;;;;5028216;28;22486;-77
2023/04/27 02:13:04;;;;;;;4.45;1.63;;;;;;;;;;5038311;28;20452;-77
2023/04/27 02:15:29;;;;;;;3.93;1.70;;;1.50;99.90;;;;;;5036032;28;20413;-77
2023/04/27 02:17:56;;;;;;;3.77;1.70;;;;;;;;;;5052203;28;20911;-77
2023/04/27 02:20:22;;;;;;;3.47;1.63;;;;;;;;;;5030388;28;20975;-78
2023/04/27 02:22:48;;;;;;;3.08;1.50;;;;;;;;;;5031236;28;20448;-77
2023/04/27 02:25:14;;;;;;;4.67;1.77;;;;;;;;;;5029039;28;20419;-77
2023/04/27 02:27:40;;;;;;;2.22;1.30;;;;;;;;;;5038053;28;20409;-78
2023/04/27 02:30:07;;;;;;;3.20;1.85;;;;;;;;;;5030852;28;20405;-77
2023/04/27 02:32:33;;;;;;;2.58;1.52;;;;;;;;;;5032525;28;20462;-77
2023/04/27 02:34:59;;;;;;;3.63;1.98;;;;;;;;;;5031767;28;21281;-78
2023/04/27 02:37:25;;;;;;;4.82;1.50;;;;;;;;;;5031664;28;20850;-77
2023/04/27 02:39:51;;;;;;;4.13;1.63;;;;;;;;;;5022299;28;20497;-77
2023/04/27 02:42:17;;;;;;;3.15;1.55;;;;;;;;;;5033532;28;20478;-77
2023/04/27 02:44:43;;;;;;;3.92;1.88;;;;;;;;;;5023682;28;20409;-77
2023/04/27 02:47:10;;;;;;;3.50;1.65;;;;;;;;;;5027899;28;20484;-77
2023/04/27 02:49:36;;;;;;;3.33;1.55;;;;;;;;;;5031938;28;20401;-77
2023/04/27 02:52:02;;;;;;;2.95;1.77;;;;;;;;;;5023981;28;20409;-78
2023/04/27 02:54:28;;;;;;;3.95;1.92;;;;;;;;;;5033940;28;20410;-77
2023/04/27 02:56:54;;;;;;;5.25;1.60;;;;;;;;;;5027321;28;20474;-78
2023/04/27 02:59:20;;;;;;;3.58;2.08;;;;;;;;;;5032040;28;21153;-77
2023/04/27 03:01:46;;;;;;;5.50;2.10;;;;;;;;;;5021290;28;21289;-77
2023/04/27 03:04:15;;;;;;;3.03;1.75;;;;;;;;;;5023476;28;20420;-76
2023/04/27 03:06:41;;;;;;;4.55;1.80;;;;;;;;;;5032443;28;20527;-78
2023/04/27 03:09:09;;;;;;;3.33;1.70;;;;;;;;;;5019296;28;20474;-78
2023/04/27 03:11:35;;;;;;;3.08;1.30;;;;;;;;;;5023844;28;22020;-76
2023/04/27 03:14:01;;;;;;;5.85;2.03;;;;;;;;;;5029342;28;20488;-77
2023/04/27 03:16:27;;;;;;;5.75;2.20;;;;;;;;;;5032384;28;20831;-76
2023/04/27 03:18:53;;;;;;;4.25;2.00;;;;;;;;;;5035791;28;20415;-77
2023/04/27 03:21:19;;;;;;;3.28;1.70;;;;;;;;;;5026183;28;20417;-77
2023/04/27 03:23:44;;;;;;;4.90;1.85;;;;;;;;;;5029684;28;22289;-77
2023/04/27 03:26:13;;;;;;;2.90;1.50;;;;;;;;;;5033191;28;20473;-77
2023/04/27 03:28:39;;;;;;;2.97;1.73;;;;;;;;;;5022146;28;20437;-76
2023/04/27 03:31:08;;;;;;;3.63;1.75;;;;;;;;;;5039840;28;20417;-78
2023/04/27 03:33:35;;;;;;;7.27;1.80;;;;;;;;;;5031852;28;20417;-77
2023/04/27 03:36:01;;;;;;;4.35;1.60;;;;;;;;;;5033264;28;20411;-77
2023/04/27 03:38:27;;;;;;;6.63;2.38;;;;;;;;;;5033136;28;20419;-77
2023/04/27 03:40:54;;;;;;;6.50;1.70;;;;;;;;;;5022334;28;20411;-77
2023/04/27 03:43:20;;;;;;;2.80;1.65;;;;;;;;;;5029787;28;20481;-77
2023/04/27 03:45:47;;;;;;;5.00;2.20;;;;;;;;;;5038461;28;20429;-78
2023/04/27 03:48:13;;;;;;;4.18;2.08;;;;;;;;;;5039076;28;20898;-77
2023/04/27 03:50:39;;;;;;;4.70;1.88;;;;;;;;;;5033135;28;20433;-77
2023/04/27 03:53:05;;;;;;;3.95;1.85;;;;;;;;;;5041192;28;20402;-78
2023/04/27 03:55:31;;;;;;;4.20;2.72;;;;;;;;;;5038436;28;20429;-77
2023/04/27 03:57:57;;;;;;;4.97;2.58;;;;;;;;;;5032231;28;20479;-77
2023/04/27 04:00:23;;;;;;;6.55;1.80;;;;;;;;;;5034879;28;20421;-77
2023/04/27 04:02:50;;;;;;;3.38;1.70;;;;;;;;;;5042616;28;20422;-78
2023/04/27 04:05:17;;;;;;;4.45;2.17;;;;;;;;;;5027524;28;20907;-76
2023/04/27 04:07:43;;;;;;;3.30;2.05;;;;;;;;;;5034287;28;20944;-77
2023/04/27 04:10:09;;;;;;;4.20;1.80;;;;;;;;;;5033804;28;20449;-77
2023/04/27 04:12:35;;;;;;;4.28;2.10;;;;;;;;;;5031756;28;20417;-78
2023/04/27 04:15:02;;;;;;;3.92;2.00;;;;;;;;;;5043486;28;21459;-77
2023/04/27 04:17:27;;;;;;;3.42;1.67;;;;;;;;;;5044344;28;20400;-78
2023/04/27 04:19:53;;;;;;;3.72;1.95;;;;;;;;;;5036221;28;20442;-76
2023/04/27 04:22:20;;;;;;;4.32;2.05;;;;;;;;;;5034742;28;20510;-77
2023/04/27 04:24:46;;;;;;;3.35;1.80;;;;;;;;;;5047196;28;20984;-77
2023/04/27 04:27:12;;;;;;;5.32;2.58;;;;;;;;;;5032332;28;20504;-77
2023/04/27 04:29:39;;;;;;;4.63;2.13;;;;;;;;;;5043186;28;20418;-76
2023/04/27 04:32:06;;;;;;;4.65;2.10;;;;;;;;;;5040910;28;20410;-78
2023/04/27 04:34:32;;;;;;;4.70;1.83;;;;;;;;;;5029253;28;20468;-77
2023/04/27 04:36:58;;;;;;;5.10;2.53;;;;;;;;;;5039909;28;20489;-78
2023/04/27 04:39:25;;;;;;;5.78;1.98;;;;;;;;;;5048309;28;20453;-79
2023/04/27 04:41:51;;;;;;;4.88;1.85;;;;;;;;;;5046263;28;20413;-77
2023/04/27 04:44:19;;;;;;;5.27;2.20;;;;;;;;;;5040609;28;20413;-80
2023/04/27 04:46:46;;;;;;;5.53;1.92;;;;;;;;;;5047298;28;20435;-78
2023/04/27 04:49:12;;;;;;;4.20;1.83;;;;;;;;;;5051746;28;20916;-78
2023/04/27 04:51:41;;;;;;;4.78;2.13;;;;;;;;;;5043208;28;20409;-79
2023/04/27 04:54:09;;;;;;;4.68;1.90;;;;;;;;;;5045459;28;20416;-80
2023/04/27 04:56:35;;;;;;;3.30;1.80;;;;;;;;;;5049944;28;20477;-78
2023/04/27 04:59:01;;;;;;;3.45;1.88;;;;;;;;;;5048665;28;20393;-78
2023/04/27 05:01:27;;;;;;;7.20;2.10;;;;;;;;;;5056824;28;20472;-78
2023/04/27 05:03:54;;;;;;;3.85;2.22;;;;;;;;;;5057916;28;20572;-79
2023/04/27 05:06:20;;;;;;;3.65;1.98;;;;;;;;;;5046998;28;21155;-79
2023/04/27 05:08:46;;;;;;;3.40;1.52;;;;;;;;;;5048721;28;20406;-78
2023/04/27 05:11:12;;;;;;;4.30;1.75;;;;;;;;;;5052524;28;20444;-78
2023/04/27 05:13:39;;;;;;;5.50;1.70;;;;;;;;;;5035082;28;20418;-79
2023/04/27 05:16:05;;;;;;;2.50;1.67;;;;;;;;;;5044393;28;21024;-78
2023/04/27 05:18:31;;;;;;;6.03;2.60;;;;;;;;;;5043138;28;20484;-79
2023/04/27 05:20:57;;;;;;;2.85;1.50;;;;;;;;;;5034288;28;20892;-77
2023/04/27 05:23:23;;;;;;;5.70;1.90;;;;;;;;;;5049691;28;20432;-78
2023/04/27 05:25:49;;;;;;;4.55;2.10;;;;;;;;;;5045919;28;20459;-78
2023/04/27 05:28:15;;;;;;;4.38;2.35;;;;;;;;;;5042874;28;20403;-78
2023/04/27 05:30:41;;;;;;;3.72;1.65;;;;;;;;;;5046533;28;20465;-78
2023/04/27 05:33:07;;;;;;;7.03;1.77;;;;;;;;;;5044357;28;20416;-79
2023/04/27 05:35:33;;;;;;;4.97;1.90;;;;;;;;;;5045783;28;20401;-79
2023/04/27 05:37:59;;;;;;;4.10;1.80;;;;;;;;;;5041301;28;20412;-79
2023/04/27 05:40:25;;;;;;;2.70;1.73;;;;;;;;;;5041957;28;20401;-78
2023/04/27 05:42:51;;;;;;;3.58;2.03;;;;;;;;;;5055518;28;20552;-78
2023/04/27 05:45:17;;;;;;;4.90;2.33;;;;;;;;;;5035673;28;20920;-79
2023/04/27 05:47:43;;;;;;;8.18;2.85;;;;;;;;;;5038133;28;20450;-78
2023/04/27 05:50:09;;;;;;;4.53;1.90;;;;;;;;;;5057285;28;20394;-78
2023/04/27 05:52:35;;;;;;;8.80;2.50;;;;;;;;;;5046965;28;20405;-77
2023/04/27 05:55:01;;;;;;;6.13;2.97;;;5.50;99.90;;;;;;5048890;28;20401;-79
2023/04/27 05:57:27;;;;;;;3.43;2.00;;;;;;;;;;5057658;28;20410;-77
2023/04/27 05:59:53;;;;;;;5.20;2.10;;;;;;;;;;5044217;28;20871;-77
2023/04/27 06:02:19;;;;;;;3.28;1.92;;;;;;;;;;5042325;28;20403;-77
2023/04/27 06:04:46;;;;;;;5.05;2.30;;;;;;;;;;5049147;28;20397;-77
2023/04/27 06:07:13;;;;;;;9.43;4.50;;;;;;;;;;5058989;28;20418;-77
2023/04/27 06:09:39;;;;;;;9.55;3.28;;;;;;;;;;5042052;28;20411;-76
2023/04/27 06:12:06;;;;;;;3.83;2.30;;;;;;;;;;5055832;28;20426;-77
2023/04/27 06:14:32;;;;;;;10.23;3.67;;;;;;;;;;5043754;28;20409;-78
2023/04/27 06:16:58;;;;;;;6.75;3.38;;;;;;;;;;5054251;28;20420;-78
2023/04/27 06:19:25;;;;;;;4.13;2.30;;;;;;;;;;5058921;28;20822;-78
2023/04/27 06:21:52;;;;;;;5.75;2.17;;;;;;;;;;5043724;28;20989;-78
2023/04/27 06:24:18;;;;;;;6.80;2.35;;;;;;;;;;5057193;28;20404;-78
2023/04/27 06:26:44;;;;;;;10.65;2.50;;;;;;;;;;5054928;28;20800;-78
2023/04/27 06:29:10;;;;;;;3.00;1.63;;;;;;;;;;5039790;28;20470;-78
2023/04/27 06:31:36;;;;;;;4.00;1.75;;;;;;;;;;5052769;28;20406;-78
2023/04/27 06:34:03;;;;;;;4.63;2.50;;;;;;;;;;5058753;28;20393;-77
2023/04/27 06:36:30;;;;;;;5.70;2.42;;;;;;;;;;5045946;28;20923;-78
2023/04/27 06:38:56;;;;;;;4.55;2.20;;;;;;;;;;5052749;28;20439;-78
2023/04/27 06:41:23;;;;;;;4.13;2.03;;;;;;;;;;5052990;28;20460;-77
2023/04/27 06:43:49;;;;;;;3.93;2.10;;;;;;;;;;5039846;28;20409;-77
2023/04/27 06:46:15;;;;;;;5.53;2.63;;;;;;;;;;5055331;28;20432;-78
2023/04/27 06:48:41;;;;;;;6.97;2.53;;;;;;;;;;5050764;28;20471;-77
2023/04/27 06:51:07;;;;;;;6.05;2.20;;;;;;;;;;5050255;28;20562;-78
2023/04/27 06:53:33;;;;;;;6.65;2.17;;;8.10;99.90;;;;;;5057986;28;20504;-79
2023/04/27 06:55:59;;;;;;;4.80;2.58;;;;;;;;;;5043748;28;20441;-78
2023/04/27 06:58:26;;;;;;;5.20;2.28;;;;;;;;;;5047049;28;20448;-77
2023/04/27 07:00:52;;;;;;;8.40;2.92;;;;;;;;;;5040410;28;20444;-79
2023/04/27 07:03:18;;;;;;;6.87;3.40;;;;;;;;;;5051514;28;20401;-78
2023/04/27 07:05:44;;;;;;;6.38;2.95;;;;;;;;;;5053300;28;20427;-78
2023/04/27 07:08:10;;;;;;;12.68;4.10;;;;;;;;;;5048259;28;20492;-77
2023/04/27 07:10:36;;;;;;;4.65;2.78;;;;;;;;;;5048555;28;20430;-78
2023/04/27 07:13:02;;;;;;;5.57;3.25;;;;;;;;;;5051783;28;20407;-79
2023/04/27 07:15:29;;;;;;;4.93;2.88;;;9.40;99.90;;;;;;5050588;28;20404;-78
2023/04/27 07:17:55;;;;;;;5.07;2.47;;;10.30;99.90;;;;;;5051320;28;20476;-79
2023/04/27 07:20:21;;;;;;;3.10;1.67;;;;;;;;;;5055280;28;20020;-77
2023/04/27 07:22:47;;;;;;;3.67;2.50;;;;;;;;;;5056693;28;20381;-78
2023/04/27 07:25:13;;;;;;;4.75;1.92;;;;;;;;;;5059537;28;20032;-79
2023/04/27 07:27:40;;;;;;;5.90;2.78;;;;;;;;;;5053419;28;20029;-79
2023/04/27 07:30:08;;;;;;;3.47;2.08;;;;;;;;;;5046829;28;20033;-78
2023/04/27 07:32:34;;;;;;;2.60;1.88;;;;;;;;;;5057286;28;20118;-79
2023/04/27 07:35:01;;;;;;;2.92;1.85;;;;;;;;;;5058575;28;20029;-78
2023/04/27 07:37:27;;;;;;;3.95;1.98;;;12.00;99.90;;;;;;5051525;28;20039;-79
2023/04/27 07:39:53;;;;;;;2.47;1.67;;;;;;;;;;5058550;28;20436;-79
2023/04/27 07:42:21;;;;;;;4.20;2.17;;;12.70;99.90;;;;;;5052471;28;20022;-80
2023/04/27 07:44:49;;;;;;;5.03;1.73;;;;;;;;;;5055138;28;20457;-78
2023/04/27 07:47:16;;;;;;;3.80;2.10;;;;;;;;;;5057503;28;20061;-79
2023/04/27 07:49:45;;;;;;;6.47;1.88;;;;;;;;;;5050748;28;20025;-79
2023/04/27 07:52:11;;;;;;;4.78;1.88;;;;;;;;;;5058445;28;20058;-78
2023/04/27 07:54:37;;;;;;;4.18;1.77;;;;;;;;;;5052773;28;20017;-79
2023/04/27 07:57:10;;;;;;;3.60;2.60;;;;;;;;;;5047343;28;20031;-79
2023/04/27 07:59:39;;;;;;;3.53;2.53;;;;;;;;;;5048192;28;20196;-79
2023/04/27 08:02:05;;;;;;;6.05;2.70;;;13.50;99.90;;;;;;5054896;28;20017;-79
2023/04/27 08:04:31;;;;;;;5.50;2.40;;;;;;;;;;5054053;28;20044;-79
2023/04/27 08:06:57;;;;;;;9.60;2.53;;;;;;;;;;5045794;28;20045;-78
2023/04/27 08:09:23;;;;;;;3.40;1.83;;;;;;;;;;5054408;28;20021;-78
2023/04/27 08:11:49;;;;;;;7.13;2.00;;;;;;;;;;5061237;28;20483;-79
2023/04/27 08:14:15;;;;;;;9.27;1.90;;;;;;;;;;5051463;28;20021;-78
2023/04/27 08:16:41;;;;;;;5.32;1.90;;;;;;;;;;5054728;28;20508;-78
2023/04/27 08:19:11;;;;;;;6.25;1.92;;;;;;;;;;5048487;28;20131;-79
2023/04/27 08:21:37;;;;;;;3.92;2.22;;;;;;;;;;5055297;28;20111;-78
2023/04/27 08:24:05;;;;;;;7.40;2.15;;;13.80;99.90;;;;;;5054694;28;20538;-79
2023/04/27 08:26:31;;;;;;;3.58;1.65;;;;;;;;;;5049588;28;20033;-78
2023/04/27 08:28:58;;;;;;;6.22;3.10;;;;;;;;;;5051509;28;20036;-78
2023/04/27 08:31:24;;;;;;;7.93;1.60;;;;;;;;;;5052563;28;20051;-80
2023/04/27 08:33:51;;;;;;;2.97;1.90;;;14.70;99.90;;;;;;5058723;28;20021;-79
2023/04/27 08:36:17;;;;;;;6.00;1.45;;;16.20;99.90;;;;;;5048871;28;20075;-79
2023/04/27 08:38:44;;;;;;;2.83;1.50;;;;;;;;;;5057926;28;20021;-78
2023/04/27 08:41:09;;;;;;;2.92;1.63;;;19.60;90.10;;;;;;5058362;28;20314;-79
2023/04/27 08:43:35;;;;;;;2.25;1.20;;;;;;;;;;5049307;28;20029;-79
2023/04/27 08:46:01;;;;;;;4.50;1.92;;;22.50;86.10;;;;;;5052947;28;20049;-79
2023/04/27 08:48:27;;;;;;;3.63;1.30;;;;;;;;;;5044871;28;20321;-79
2023/04/27 08:50:55;;;;;;;9.35;3.70;;;25.00;55.30;;;;;;5050784;28;20030;-80
2023/04/27 08:53:22;;;;;;;4.78;1.80;;;;;;;;;;5058538;28;20370;-80
2023/04/27 08:55:50;;;;;;;5.97;1.98;;;25.80;50.80;;;;;;5044569;28;20044;-80
2023/04/27 08:58:16;;;;;;;4.30;1.20;;;;;;;;;;5051934;28;20392;-79
2023/04/27 09:00:44;;;;;;;4.15;1.60;;;;;;;;;;5047143;28;20029;-78
2023/04/27 09:03:23;;;;;;;3.17;1.30;;;;;;;;;;5056990;28;20068;-79
2023/04/27 09:05:49;;;;;;;2.92;1.25;;;;;;;;;;5048290;28;20044;-78
2023/04/27 09:08:15;;;;;;;3.60;1.33;;;27.20;56.80;;;;;;5053902;28;20041;-78
2023/04/27 09:10:48;;;;;;;3.90;1.90;;;;;;;;;;5058337;28;20021;-78
2023/04/27 09:13:14;;;;;;;5.18;1.70;;;;;;;;;;5048946;28;20025;-78
2023/04/27 09:15:44;;;;;;;2.80;1.77;;;26.60;40.90;;;;;;5054292;28;20025;-79
2023/04/27 09:18:17;;;;;;;8.27;1.65;;;;;;;;;;5051212;28;20021;-78
2023/04/27 09:20:48;;;;;;;19.10;7.57;;;23.70;61.60;;;;;;5049237;28;20036;-78
2023/04/27 09:23:28;;;;;;;3.80;1.70;;;23.20;48.40;;;;;;5052238;28;20112;-77
2023/04/27 09:25:58;;;;;;;5.28;2.00;;;;;;;;;;5039456;28;20052;-79
2023/04/27 09:28:28;;;;;;;3.67;1.48;;;20.10;54.00;;;;;;5054240;28;20036;-79
2023/04/27 09:30:55;;;;;;;12.30;1.52;;;;;;;;;;5045365;28;20045;-78
2023/04/27 09:33:25;;;;;;;4.63;2.58;;;;;;;;;;5059946;28;20086;-77
2023/04/27 09:35:52;;;;;;;5.90;1.55;;;;;;;;;;5051377;28;20029;-78
2023/04/27 09:38:18;;;;;;;7.90;1.88;;;18.70;80.10;;;;;;5050281;28;20647;-78
2023/04/27 09:40:44;;;;;;;4.63;1.27;;;18.80;70.90;;;;;;5058437;28;20230;-79
2023/04/27 09:43:10;;;;;;;2.67;1.27;;;;;;;;;;5041246;28;20537;-79
2023/04/27 09:45:37;;;;;;;3.35;1.20;;;;;;;;;;5052547;28;20056;-77
2023/04/27 09:48:05;;;;;;;3.95;1.50;;;;;;;;;;5047284;28;20040;-79
2023/04/27 09:50:38;;;;;;;2.25;1.40;;;18.80;64.20;;;;;;5039578;28;20060;-78
2023/04/27 09:53:14;;;;;;;1.80;1.08;;;;;;;;;;5051717;28;20029;-79
2023/04/27 09:56:02;;;;;;;6.60;1.60;;;;;;;;;;5038248;28;20721;-79
2023/04/27 09:58:28;;;;;;;4.25;1.58;;;;;;;;;;5051224;28;20032;-78
2023/04/27 10:01:04;;;;;;;5.18;1.20;;;;;;;;;;5041202;28;20079;-78
2023/04/27 10:03:42;;;;;;;3.28;1.52;;;;;;;;;;5055166;28;20082;-78
2023/04/27 10:06:10;;;;;;;2.17;1.27;;;18.70;57.40;;;;;;5039134;28;21638;-77
2023/04/27 10:08:37;;;;;;;;;;;;;;;;;;5046426;28;20028;-77
2023/04/27 10:11:42;;;;;;;2.50;1.17;;;17.60;59.70;;;;;;5049732;28;19913;-78
2023/04/27 10:14:16;;;;;;;4.57;1.88;;;17.60;60.00;;;;;;5002423;28;20041;-77
2023/04/27 10:16:57;;;;;;;3.53;1.42;;;;;;;;;;5051170;28;20385;-78
2023/04/27 10:19:24;;;;;;;2.95;1.40;;;;;;;;;;5041770;28;20021;-77
2023/04/27 10:21:59;;;;;;;3.05;0.50;;;;;;;;;;5044326;28;20131;-79
2023/04/27 10:24:38;;;;;;;2.42;0.80;;;;;;;;;;5050019;28;20037;-78
2023/04/27 10:27:05;;;;;;;4.65;1.17;;;;;;;;;;5042784;28;20073;-78
2023/04/27 10:29:38;;;;;;;2.95;1.00;;;;;;;;;;5038688;28;20037;-79
2023/04/27 10:32:08;;;;;;;1.98;1.08;;;;;;;;;;5047665;28;20385;-78
2023/04/27 10:34:37;;;;;;;3.05;0.77;;;;;;;;;;5053755;28;20058;-79
2023/04/27 10:37:06;;;;;;;3.08;1.20;;;;;;;;;;5041617;28;20582;-79
2023/04/27 10:39:37;;;;;;;2.17;1.00;;;;;;;;;;5057318;28;20024;-78
2023/04/27 10:42:03;;;;;;;2.33;1.20;;;;;;;;;;5047145;28;20573;-78
2023/04/27 10:44:30;;;;;;;2.78;0.90;;;;;;;;;;5044065;28;20036;-78
2023/04/27 10:46:58;;;;;;;3.55;1.40;;;;;;;;;;5057505;28;20394;-79
2023/04/27 10:49:24;;;;;;;5.50;1.02;;;;;;;;;;5044902;28;20024;-78
2023/04/27 10:51:51;;;;;;;7.28;1.88;;;;;;;;;;5057076;28;20036;-79
2023/04/27 10:54:17;;;;;;;4.32;1.60;;;;;;;;;;5055540;28;20304;-78
2023/04/27 10:56:43;;;;;;;5.25;1.48;;;16.70;70.90;;;;;;5045336;28;20044;-78
2023/04/27 10:59:09;;;;;;;1.90;1.05;;;16.40;69.10;;;;;;5044157;28;20025;-78
2023/04/27 11:01:35;;;;;;;1.90;0.95;;;;;;;;;;5055124;28;20425;-78
2023/04/27 11:04:02;;;;;;;6.00;1.10;;;;;;;;;;5053010;28;20071;-77
2023/04/27 11:06:29;;;;;;;2.50;1.35;;;;;;;;;;5044165;28;20059;-78
2023/04/27 11:08:55;;;;;;;6.03;0.98;;;;;;;;;;5049511;28;20037;-78
2023/04/27 11:11:23;;;;;;;2.95;1.10;;;;;;;;;;5048078;28;20031;-77
2023/04/27 11:13:51;;;;;;;4.15;1.45;;;;;;;;;;5037566;28;20090;-78
2023/04/27 11:16:18;;;;;;;2.45;1.10;;;;;;;;;;5047014;28;20032;-78
2023/04/27 11:18:44;;;;;;;4.20;1.05;;;18.10;59.40;;;;;;5042234;28;20432;-78
2023/04/27 11:21:14;;;;;;;3.70;1.73;;;;;;;;;;5022681;28;20144;-78
2023/04/27 11:23:41;;;;;;;4.32;1.23;;;;;;;;;;5023370;28;22383;-78
2023/04/27 11:26:15;;;;;;;7.32;2.03;;;;;;;;;;5049029;28;20036;-79
2023/04/27 11:28:41;;;;;;;3.58;1.33;;;;;;;;;;5033593;28;20032;-79
2023/04/27 11:31:07;;;;;;;5.55;1.45;;;;;;;;;;5038243;28;20030;-79
2023/04/27 11:33:33;;;;;;;2.90;0.90;;;;;;;;;;5049851;28;20131;-79
2023/04/27 11:35:59;;;;;;;;;;;;;;;;;;5037263;28;21437;-79
2023/04/27 11:38:26;;;;;;;;;;;;;;;;;;5047479;28;19989;-80
2023/04/27 11:40:59;;;;;;;5.60;1.77;;;;;;;;;;5050170;28;19916;-78
2023/04/27 11:43:26;;;;;;;8.75;1.77;;;;;;;;;;5032749;28;20032;-79
2023/04/27 11:45:52;;;;;;;4.40;1.42;;;;;;;;;;5040295;28;20120;-79
2023/04/27 11:48:19;;;;;;;3.97;1.10;;;;;;;;;;5045749;28;20386;-79
2023/04/27 11:50:49;;;;;;;5.05;1.38;;;18.90;71.40;;;;;;5050731;28;20063;-79
2023/04/27 11:53:15;;;;;;;4.75;1.58;;;;;;;;;;5063107;28;20289;-78
2023/04/27 11:55:42;;;;;;;2.95;1.63;;;;;;;;;;5042119;28;20124;-76
2023/04/27 11:58:16;;;;;;;3.17;1.48;;;;;;;;;;5046631;28;20029;-76
2023/04/27 12:00:42;;;;;;;4.10;1.63;;;;;;;;;;5046342;28;20119;-78
2023/04/27 12:03:08;;;;;;;2.38;1.33;;;;;;;;;;5054153;28;20025;-77
2023/04/27 12:05:34;;;;;;;5.35;1.92;;;;;;;;;;5032094;28;20033;-78
2023/04/27 12:08:00;;;;;;;4.68;1.42;;;;;;;;;;5048859;28;20029;-78
2023/04/27 12:10:26;;;;;;;3.28;1.50;;;19.10;67.90;;;;;;5045278;28;20028;-76
2023/04/27 12:12:52;;;;;;;1.75;1.17;;;;;;;;;;5039387;28;20028;-77
2023/04/27 12:15:18;;;;;;;3.25;1.08;;;;;;;;;;5045006;28;20044;-77
2023/04/27 12:17:45;;;;;;;2.45;1.60;;;;;;;;;;5040760;28;20034;-77
2023/04/27 12:20:11;;;;;;;3.38;1.40;;;;;;;;;;5038940;28;20334;-77
2023/04/27 12:22:37;;;;;;;3.85;1.08;;;;;;;;;;5026290;28;21050;-78
2023/04/27 12:25:04;;;;;;;5.55;1.45;;;;;;;;;;5034933;28;20025;-77
2023/04/27 12:27:31;;;;;;;6.72;1.52;;;;;;;;;;5045428;28;20052;-78
2023/04/27 12:29:58;;;;;;;2.95;1.10;;;;;;;;;;5033122;28;20063;-76
2023/04/27 12:32:24;;;;;;;3.00;1.30;;;;;;;;;;5040253;28;20433;-77
2023/04/27 12:34:50;;;;;;;4.15;1.90;;;;;;;;;;5041470;28;20079;-78
2023/04/27 12:37:17;;;;;;;1.90;1.08;;;;;;;;;;5033532;28;20051;-78
2023/04/27 12:39:43;;;;;;;4.60;1.30;;;;;;;;;;5051615;28;20112;-79
2023/04/27 12:42:09;;;;;;;;;;;;;;;;;;5051805;28;20111;-78
2023/04/27 12:44:35;;;;;;;1.65;1.08;;;;;;;;;;5038440;28;20015;-78
2023/04/27 12:47:02;;;;;;;4.90;1.27;;;;;;;;;;5040329;28;20033;-78
2023/04/27 12:49:28;;;;;;;3.78;1.30;;;;;;;;;;5051401;28;20424;-76
2023/04/27 12:51:56;;;;;;;3.20;1.45;;;;;;;;;;5045529;28;20241;-78
2023/04/27 12:54:21;;;;;;;3.30;1.40;;;;;;;;;;5040158;28;20022;-78
2023/04/27 12:56:47;;;;;;;4.18;1.92;;;19.20;77.70;;;;;;5048136;28;20027;-78
2023/04/27 12:59:14;;;;;;;4.88;1.13;;;;;;;;;;5041279;28;20013;-77
2023/04/27 13:01:40;;;;;;;5.43;1.67;;;;;;;;;;5049822;28;20040;-77
2023/04/27 13:04:07;;;;;;;1.98;1.33;;;;;;;;;;5037602;28;20034;-77
2023/04/27 13:06:33;;;;;;;3.83;1.48;;;;;;;;;;5038896;28;20449;-78
2023/04/27 13:08:59;;;;;;;6.95;1.67;;;;;;;;;;5040406;28;20211;-77
2023/04/27 13:11:25;;;;;;;3.50;1.52;;;;;;;;;;5047731;28;20124;-76
2023/04/27 13:13:51;;;;;;;4.30;1.73;;;;;;;;;;5036188;28;20040;-79
2023/04/27 13:16:20;;;;;;;3.28;1.83;;;;;;;;;;5035906;28;20048;-78
2023/04/27 13:18:48;;;;;;;4.38;1.70;;;;;;;;;;5034690;28;20744;-77
2023/04/27 13:21:15;;;;;;;4.68;1.60;;;18.70;65.90;;;;;;5044036;28;20108;-78
2023/04/27 13:23:41;;;;;;;4.18;1.23;;;;;;;;;;5051714;28;20100;-78
2023/04/27 13:26:07;;;;;;;3.10;1.20;;;;;;;;;;5032428;28;20128;-77
2023/04/27 13:28:33;;;;;;;5.70;1.40;;;;;;;;;;5036611;28;20504;-77
2023/04/27 13:30:59;;;;;;;5.80;1.58;;;;;;;;;;5015744;28;20017;-76
2023/04/27 13:33:25;;;;;;;5.25;1.05;;;;;;;;;;5047009;28;20044;-77
2023/04/27 13:35:51;;;;;;;5.10;1.70;;;;;;;;;;5052687;28;20024;-79
2023/04/27 13:38:17;;;;;;;6.22;2.05;;;;;;;;;;5043379;28;20100;-78
2023/04/27 13:40:43;;;;;;;4.07;1.67;;;;;;;;;;5030451;28;20119;-79
2023/04/27 13:43:10;;;;;;;3.20;1.05;;;18.60;57.80;;;;;;5039064;28;20377;-78
2023/04/27 13:45:36;;;;;;;3.30;1.60;;;;;;;;;;5035061;28;20158;-77
2023/04/27 13:48:02;;;;;;;5.97;1.75;;;;;;;;;;5037979;28;20060;-79
2023/04/27 13:50:28;;;;;;;1.65;1.08;;;;;;;;;;5041330;28;20029;-78
2023/04/27 13:52:54;;;;;;;4.18;2.30;;;18.30;59.00;;;;;;5042413;28;20060;-79
2023/04/27 13:55:19;;;;;;;3.55;1.73;;;18.90;76.00;;;;;;5038471;28;20033;-78
2023/04/27 13:57:45;;;;;;;4.32;1.60;;;;;;;;;;5033352;28;20954;-78
2023/04/27 14:00:11;;;;;;;5.15;1.55;;;;;;;;;;5039531;28;20033;-78
2023/04/27 14:02:37;;;;;;;7.60;1.50;;;19.70;59.30;;;;;;5034070;28;20397;-76
2023/04/27 14:05:04;;;;;;;2.95;1.08;;;;;;;;;;5046636;28;20037;-77
2023/04/27 14:07:31;;;;;;;5.93;1.65;;;;;;;;;;5045311;28;20058;-77
2023/04/27 14:09:57;;;;;;;4.13;1.85;;;;;;;;;;5051122;28;20064;-79
2023/04/27 14:12:23;;;;;;;4.43;1.58;;;;;;;;;;5039540;28;20066;-79
2023/04/27 14:14:49;;;;;;;2.22;1.20;;;;;;;;;;5037298;28;20032;-79
2023/04/27 14:17:15;;;;;;;3.55;1.50;;;;;;;;;;5038977;28;20477;-78
2023/04/27 14:19:41;;;;;;;4.72;1.88;;;;;;;;;;5043032;28;20041;-78
2023/04/27 14:22:08;;;;;;;5.05;1.05;;;;;;;;;;5034003;28;20504;-79
2023/04/27 14:24:34;;;;;;;6.93;1.80;;;;;;;;;;5047257;28;20036;-79
2023/04/27 14:27:00;;;;;;;4.07;1.30;;;;;;;;;;5045957;28;20044;-77
2023/04/27 14:29:26;;;;;;;4.75;2.00;;;;;;;;;;5040199;28;20029;-78